sensor_id;sensor_type;location;lat;lon;timestamp;temperature;humidity
28524;DHT22;15734;50.904;6.922;2023-05-06T00:01:32;11.90;99.90
28524;DHT22;15734;50.904;6.922;2023-05-06T00:03:58;11.90;99.90
28524;DHT22;15734;50.904;6.922;2023-05-06T00:06:23;11.80;99.90
28524;DHT22;15734;50.904;6.922;2023-05-06T00:08:49;11.80;99.90
28524;DHT22;15734;50.904;6.922;2023-05-06T00:11:15;11.80;99.90
28524;DHT22;15734;50.904;6.922;2023-05-06T00:13:40;11.80;99.90
28524;DHT22;15734;50.904;6.922;2023-05-06T00:16:06;11.80;99.90
28524;DHT22;15734;50.904;6.922;2023-05-06T00:18:32;11.80;99.90
28524;DHT22;15734;50.904;6.922;2023-05-06T00:20:57;11.80;99.90
28524;DHT22;15734;50.904;6.922;2023-05-06T00:23:23;11.80;99.90
28524;DHT22;15734;50.904;6.922;2023-05-06T00:25:48;11.80;99.90
28524;DHT22;15734;50.904;6.922;2023-05-06T00:28:14;11.80;99.90
28524;DHT22;15734;50.904;6.922;2023-05-06T00:30:40;11.80;99.90
28524;DHT22;15734;50.904;6.922;2023-05-06T00:33:05;11.70;99.90
28524;DHT22;15734;50.904;6.922;2023-05-06T00:35:31;11.70;99.90
28524;DHT22;15734;50.904;6.922;2023-05-06T00:37:57;11.70;99.90
28524;DHT22;15734;50.904;6.922;2023-05-06T00:40:30;11.60;99.90
28524;DHT22;15734;50.904;6.922;2023-05-06T00:42:55;11.70;99.90
28524;DHT22;15734;50.904;6.922;2023-05-06T00:45:21;11.60;99.90
28524;DHT22;15734;50.904;6.922;2023-05-06T00:47:47;11.60;99.90
28524;DHT22;15734;50.904;6.922;2023-05-06T00:50:13;11.50;99.90
28524;DHT22;15734;50.904;6.922;2023-05-06T00:52:39;11.50;99.90
28524;DHT22;15734;50.904;6.922;2023-05-06T00:55:05;11.50;99.90
28524;DHT22;15734;50.904;6.922;2023-05-06T00:57:31;11.50;99.90
28524;DHT22;15734;50.904;6.922;2023-05-06T00:59:56;11.40;99.90
28524;DHT22;15734;50.904;6.922;2023-05-06T01:02:22;11.40;99.90
28524;DHT22;15734;50.904;6.922;2023-05-06T01:04:47;11.40;99.90
28524;DHT22;15734;50.904;6.922;2023-05-06T01:13:30;11.30;99.90
28524;DHT22;15734;50.904;6.922;2023-05-06T01:15:56;11.30;99.90
28524;DHT22;15734;50.904;6.922;2023-05-06T01:18:25;11.20;99.90
28524;DHT22;15734;50.904;6.922;2023-05-06T01:20:52;11.20;99.90
28524;DHT22;15734;50.904;6.922;2023-05-06T01:23:19;11.10;99.90
28524;DHT22;15734;50.904;6.922;2023-05-06T01:25:44;11.10;99.90
28524;DHT22;15734;50.904;6.922;2023-05-06T01:28:11;11.10;99.90
28524;DHT22;15734;50.904;6.922;2023-05-06T01:33:25;11.00;99.90
28524;DHT22;15734;50.904;6.922;2023-05-06T01:36:14;11.00;99.90
28524;DHT22;15734;50.904;6.922;2023-05-06T01:41:15;11.00;99.90
28524;DHT22;15734;50.904;6.922;2023-05-06T01:43:43;10.90;99.90
28524;DHT22;15734;50.904;6.922;2023-05-06T01:46:18;10.90;99.90
28524;DHT22;15734;50.904;6.922;2023-05-06T01:48:49;10.90;99.90
28524;DHT22;15734;50.904;6.922;2023-05-06T01:51:16;10.90;99.90
28524;DHT22;15734;50.904;6.922;2023-05-06T01:53:41;10.90;99.90
28524;DHT22;15734;50.904;6.922;2023-05-06T01:56:07;10.90;99.90
28524;DHT22;15734;50.904;6.922;2023-05-06T01:58:32;10.80;99.90
28524;DHT22;15734;50.904;6.922;2023-05-06T02:00:58;10.90;99.90
28524;DHT22;15734;50.904;6.922;2023-05-06T02:03:23;10.80;99.90
28524;DHT22;15734;50.904;6.922;2023-05-06T02:05:49;10.80;99.90
28524;DHT22;15734;50.904;6.922;2023-05-06T02:08:14;10.70;99.90
28524;DHT22;15734;50.904;6.922;2023-05-06T02:10:40;10.70;99.90
28524;DHT22;15734;50.904;6.922;2023-05-06T02:13:06;10.70;99.90
28524;DHT22;15734;50.904;6.922;2023-05-06T02:15:31;10.60;99.90
28524;DHT22;15734;50.904;6.922;2023-05-06T02:17:57;10.60;99.90
28524;DHT22;15734;50.904;6.922;2023-05-06T02:20:24;10.70;99.90
28524;DHT22;15734;50.904;6.922;2023-05-06T02:22:49;10.70;99.90
28524;DHT22;15734;50.904;6.922;2023-05-06T02:25:15;10.70;99.90
28524;DHT22;15734;50.904;6.922;2023-05-06T02:27:41;10.70;99.90
28524;DHT22;15734;50.904;6.922;2023-05-06T02:30:07;10.80;99.90
28524;DHT22;15734;50.904;6.922;2023-05-06T02:32:32;10.80;99.90
28524;DHT22;15734;50.904;6.922;2023-05-06T02:34:58;10.80;99.90
28524;DHT22;15734;50.904;6.922;2023-05-06T02:37:23;10.80;99.90
28524;DHT22;15734;50.904;6.922;2023-05-06T02:39:49;10.80;99.90
28524;DHT22;15734;50.904;6.922;2023-05-06T02:42:15;10.80;99.90
28524;DHT22;15734;50.904;6.922;2023-05-06T02:44:40;10.80;99.90
28524;DHT22;15734;50.904;6.922;2023-05-06T02:47:06;10.80;99.90
28524;DHT22;15734;50.904;6.922;2023-05-06T02:49:32;10.80;99.90
28524;DHT22;15734;50.904;6.922;2023-05-06T02:51:57;10.90;99.90
28524;DHT22;15734;50.904;6.922;2023-05-06T02:54:23;10.90;99.90
28524;DHT22;15734;50.904;6.922;2023-05-06T02:56:48;10.90;99.90
28524;DHT22;15734;50.904;6.922;2023-05-06T02:59:14;10.90;99.90
28524;DHT22;15734;50.904;6.922;2023-05-06T03:01:39;10.90;99.90
28524;DHT22;15734;50.904;6.922;2023-05-06T03:04:05;10.90;99.90
28524;DHT22;15734;50.904;6.922;2023-05-06T03:06:31;11.00;99.90
28524;DHT22;15734;50.904;6.922;2023-05-06T03:08:56;11.00;99.90
28524;DHT22;15734;50.904;6.922;2023-05-06T03:11:22;11.00;99.90
28524;DHT22;15734;50.904;6.922;2023-05-06T03:13:48;11.00;99.90
28524;DHT22;15734;50.904;6.922;2023-05-06T03:16:13;11.00;99.90
28524;DHT22;15734;50.904;6.922;2023-05-06T03:18:39;11.00;99.90
28524;DHT22;15734;50.904;6.922;2023-05-06T03:21:04;11.00;99.90
28524;DHT22;15734;50.904;6.922;2023-05-06T03:23:30;11.10;99.90
28524;DHT22;15734;50.904;6.922;2023-05-06T03:25:56;11.10;99.90
28524;DHT22;15734;50.904;6.922;2023-05-06T03:28:22;11.10;99.90
28524;DHT22;15734;50.904;6.922;2023-05-06T03:30:47;11.10;99.90
28524;DHT22;15734;50.904;6.922;2023-05-06T03:33:13;11.10;99.90
28524;DHT22;15734;50.904;6.922;2023-05-06T03:35:38;11.10;99.90
28524;DHT22;15734;50.904;6.922;2023-05-06T03:38:04;11.10;99.90
28524;DHT22;15734;50.904;6.922;2023-05-06T03:40:30;11.10;99.90
28524;DHT22;15734;50.904;6.922;2023-05-06T03:42:56;11.10;99.90
28524;DHT22;15734;50.904;6.922;2023-05-06T03:45:22;11.10;99.90
28524;DHT22;15734;50.904;6.922;2023-05-06T03:47:47;11.10;99.90
28524;DHT22;15734;50.904;6.922;2023-05-06T03:50:13;11.10;99.90
28524;DHT22;15734;50.904;6.922;2023-05-06T03:52:38;11.10;99.90
28524;DHT22;15734;50.904;6.922;2023-05-06T03:55:04;11.00;99.90
28524;DHT22;15734;50.904;6.922;2023-05-06T03:57:30;11.00;99.90
28524;DHT22;15734;50.904;6.922;2023-05-06T03:59:56;11.00;99.90
28524;DHT22;15734;50.904;6.922;2023-05-06T04:02:21;10.90;99.90
28524;DHT22;15734;50.904;6.922;2023-05-06T04:04:47;10.90;99.90
28524;DHT22;15734;50.904;6.922;2023-05-06T04:07:12;10.90;99.90
28524;DHT22;15734;50.904;6.922;2023-05-06T04:09:38;10.90;99.90
28524;DHT22;15734;50.904;6.922;2023-05-06T04:12:03;11.00;99.90
28524;DHT22;15734;50.904;6.922;2023-05-06T04:14:30;11.00;99.90
28524;DHT22;15734;50.904;6.922;2023-05-06T04:16:55;11.10;99.90
28524;DHT22;15734;50.904;6.922;2023-05-06T04:19:22;11.10;99.90
28524;DHT22;15734;50.904;6.922;2023-05-06T04:21:47;11.10;99.90
28524;DHT22;15734;50.904;6.922;2023-05-06T04:24:13;11.10;99.90
28524;DHT22;15734;50.904;6.922;2023-05-06T04:26:40;11.10;99.90
28524;DHT22;15734;50.904;6.922;2023-05-06T04:29:06;11.20;99.90
28524;DHT22;15734;50.904;6.922;2023-05-06T04:31:32;11.20;99.90
28524;DHT22;15734;50.904;6.922;2023-05-06T04:33:59;11.20;99.90
28524;DHT22;15734;50.904;6.922;2023-05-06T04:36:25;11.30;99.90
28524;DHT22;15734;50.904;6.922;2023-05-06T04:38:51;11.30;99.90
28524;DHT22;15734;50.904;6.922;2023-05-06T04:41:17;11.30;99.90
28524;DHT22;15734;50.904;6.922;2023-05-06T04:43:43;11.40;99.90
28524;DHT22;15734;50.904;6.922;2023-05-06T04:46:09;11.40;99.90
28524;DHT22;15734;50.904;6.922;2023-05-06T04:48:35;11.30;99.90
28524;DHT22;15734;50.904;6.922;2023-05-06T04:51:01;11.40;99.90
28524;DHT22;15734;50.904;6.922;2023-05-06T04:53:28;11.40;99.90
28524;DHT22;15734;50.904;6.922;2023-05-06T04:55:54;11.40;99.90
28524;DHT22;15734;50.904;6.922;2023-05-06T04:58:20;11.50;99.90
28524;DHT22;15734;50.904;6.922;2023-05-06T05:00:45;11.50;99.90
28524;DHT22;15734;50.904;6.922;2023-05-06T05:03:11;11.50;99.90
28524;DHT22;15734;50.904;6.922;2023-05-06T05:05:36;11.50;99.90
28524;DHT22;15734;50.904;6.922;2023-05-06T05:08:02;11.60;99.90
28524;DHT22;15734;50.904;6.922;2023-05-06T05:10:28;11.60;99.90
28524;DHT22;15734;50.904;6.922;2023-05-06T05:12:53;11.60;99.90
28524;DHT22;15734;50.904;6.922;2023-05-06T05:15:19;11.50;99.90
28524;DHT22;15734;50.904;6.922;2023-05-06T05:17:45;11.60;99.90
28524;DHT22;15734;50.904;6.922;2023-05-06T05:20:11;11.60;99.90
28524;DHT22;15734;50.904;6.922;2023-05-06T05:22:36;11.60;99.90
28524;DHT22;15734;50.904;6.922;2023-05-06T05:25:02;11.70;99.90
28524;DHT22;15734;50.904;6.922;2023-05-06T05:27:28;11.70;99.90
28524;DHT22;15734;50.904;6.922;2023-05-06T05:29:55;11.70;99.90
28524;DHT22;15734;50.904;6.922;2023-05-06T05:32:21;11.80;99.90
28524;DHT22;15734;50.904;6.922;2023-05-06T05:34:46;11.80;99.90
28524;DHT22;15734;50.904;6.922;2023-05-06T05:37:12;11.80;99.90
28524;DHT22;15734;50.904;6.922;2023-05-06T05:39:38;11.90;99.90
28524;DHT22;15734;50.904;6.922;2023-05-06T05:42:03;11.90;99.90
28524;DHT22;15734;50.904;6.922;2023-05-06T05:44:29;12.00;99.90
28524;DHT22;15734;50.904;6.922;2023-05-06T05:46:54;12.00;99.90
28524;DHT22;15734;50.904;6.922;2023-05-06T05:49:20;11.90;99.90
28524;DHT22;15734;50.904;6.922;2023-05-06T05:51:46;11.90;99.90
28524;DHT22;15734;50.904;6.922;2023-05-06T05:54:11;11.90;99.90
28524;DHT22;15734;50.904;6.922;2023-05-06T05:56:37;12.00;99.90
28524;DHT22;15734;50.904;6.922;2023-05-06T05:59:02;12.00;99.90
28524;DHT22;15734;50.904;6.922;2023-05-06T06:01:28;12.00;99.90
28524;DHT22;15734;50.904;6.922;2023-05-06T06:03:53;12.10;99.90
28524;DHT22;15734;50.904;6.922;2023-05-06T06:06:20;12.30;99.90
28524;DHT22;15734;50.904;6.922;2023-05-06T06:08:45;12.30;99.90
28524;DHT22;15734;50.904;6.922;2023-05-06T06:11:11;12.40;99.90
28524;DHT22;15734;50.904;6.922;2023-05-06T06:13:37;12.50;99.90
28524;DHT22;15734;50.904;6.922;2023-05-06T06:16:03;12.50;99.90
28524;DHT22;15734;50.904;6.922;2023-05-06T06:18:29;12.50;99.90
28524;DHT22;15734;50.904;6.922;2023-05-06T06:20:54;12.50;99.90
28524;DHT22;15734;50.904;6.922;2023-05-06T06:23:20;12.50;99.90
28524;DHT22;15734;50.904;6.922;2023-05-06T06:25:46;12.50;99.90
28524;DHT22;15734;50.904;6.922;2023-05-06T06:28:12;12.60;99.90
28524;DHT22;15734;50.904;6.922;2023-05-06T06:30:37;12.70;99.90
28524;DHT22;15734;50.904;6.922;2023-05-06T06:33:03;12.70;99.90
28524;DHT22;15734;50.904;6.922;2023-05-06T06:35:28;12.50;99.90
28524;DHT22;15734;50.904;6.922;2023-05-06T06:37:54;12.50;99.90
28524;DHT22;15734;50.904;6.922;2023-05-06T06:40:20;12.50;99.90
28524;DHT22;15734;50.904;6.922;2023-05-06T06:42:46;12.50;99.90
28524;DHT22;15734;50.904;6.922;2023-05-06T06:45:13;12.50;99.90
28524;DHT22;15734;50.904;6.922;2023-05-06T06:47:38;12.60;99.90
28524;DHT22;15734;50.904;6.922;2023-05-06T06:50:06;12.60;99.90
28524;DHT22;15734;50.904;6.922;2023-05-06T06:52:32;12.70;99.90
28524;DHT22;15734;50.904;6.922;2023-05-06T06:54:58;12.70;99.90
28524;DHT22;15734;50.904;6.922;2023-05-06T06:57:23;12.70;99.90
28524;DHT22;15734;50.904;6.922;2023-05-06T06:59:49;12.80;99.90
28524;DHT22;15734;50.904;6.922;2023-05-06T07:02:16;12.90;99.90
28524;DHT22;15734;50.904;6.922;2023-05-06T07:04:42;12.90;99.90
28524;DHT22;15734;50.904;6.922;2023-05-06T07:07:07;13.00;99.90
28524;DHT22;15734;50.904;6.922;2023-05-06T07:09:33;13.10;99.90
28524;DHT22;15734;50.904;6.922;2023-05-06T07:11:58;13.10;99.90
28524;DHT22;15734;50.904;6.922;2023-05-06T07:14:26;13.10;99.90
28524;DHT22;15734;50.904;6.922;2023-05-06T07:16:51;13.20;99.90
28524;DHT22;15734;50.904;6.922;2023-05-06T07:19:17;13.30;99.90
28524;DHT22;15734;50.904;6.922;2023-05-06T07:21:42;13.40;99.90
28524;DHT22;15734;50.904;6.922;2023-05-06T07:24:08;13.40;99.90
28524;DHT22;15734;50.904;6.922;2023-05-06T07:26:37;13.40;99.90
28524;DHT22;15734;50.904;6.922;2023-05-06T07:29:03;13.50;99.90
28524;DHT22;15734;50.904;6.922;2023-05-06T07:31:30;13.60;99.90
28524;DHT22;15734;50.904;6.922;2023-05-06T07:33:56;13.60;99.90
28524;DHT22;15734;50.904;6.922;2023-05-06T07:36:23;13.70;99.90
28524;DHT22;15734;50.904;6.922;2023-05-06T07:38:48;13.70;99.90
28524;DHT22;15734;50.904;6.922;2023-05-06T07:41:14;13.80;99.90
28524;DHT22;15734;50.904;6.922;2023-05-06T07:43:40;13.80;99.90
28524;DHT22;15734;50.904;6.922;2023-05-06T07:46:06;13.90;99.90
28524;DHT22;15734;50.904;6.922;2023-05-06T07:48:31;13.90;99.90
28524;DHT22;15734;50.904;6.922;2023-05-06T07:50:58;14.00;99.90
28524;DHT22;15734;50.904;6.922;2023-05-06T07:53:23;14.00;99.90
28524;DHT22;15734;50.904;6.922;2023-05-06T07:55:50;14.10;99.90
28524;DHT22;15734;50.904;6.922;2023-05-06T07:58:17;14.10;99.90
28524;DHT22;15734;50.904;6.922;2023-05-06T08:00:42;14.10;99.90
28524;DHT22;15734;50.904;6.922;2023-05-06T08:03:08;14.10;99.90
28524;DHT22;15734;50.904;6.922;2023-05-06T08:05:34;14.30;99.90
28524;DHT22;15734;50.904;6.922;2023-05-06T08:07:59;14.30;99.90
28524;DHT22;15734;50.904;6.922;2023-05-06T08:10:25;14.30;99.90
28524;DHT22;15734;50.904;6.922;2023-05-06T08:12:50;14.40;99.90
28524;DHT22;15734;50.904;6.922;2023-05-06T08:15:16;14.40;99.90
28524;DHT22;15734;50.904;6.922;2023-05-06T08:17:42;14.40;99.90
28524;DHT22;15734;50.904;6.922;2023-05-06T08:20:07;14.50;99.90
28524;DHT22;15734;50.904;6.922;2023-05-06T08:22:33;14.50;99.90
28524;DHT22;15734;50.904;6.922;2023-05-06T08:24:59;14.70;99.90
28524;DHT22;15734;50.904;6.922;2023-05-06T08:27:25;14.70;99.90
28524;DHT22;15734;50.904;6.922;2023-05-06T08:29:51;14.80;99.90
28524;DHT22;15734;50.904;6.922;2023-05-06T08:32:16;14.90;99.90
28524;DHT22;15734;50.904;6.922;2023-05-06T08:34:42;15.00;99.90
28524;DHT22;15734;50.904;6.922;2023-05-06T08:37:07;15.00;99.90
28524;DHT22;15734;50.904;6.922;2023-05-06T08:39:33;15.10;99.90
28524;DHT22;15734;50.904;6.922;2023-05-06T08:41:59;15.30;99.90
28524;DHT22;15734;50.904;6.922;2023-05-06T08:44:29;15.40;99.90
28524;DHT22;15734;50.904;6.922;2023-05-06T08:46:55;15.50;99.90
28524;DHT22;15734;50.904;6.922;2023-05-06T08:49:20;15.70;99.90
28524;DHT22;15734;50.904;6.922;2023-05-06T08:51:48;15.80;99.90
28524;DHT22;15734;50.904;6.922;2023-05-06T08:54:15;15.90;99.90
28524;DHT22;15734;50.904;6.922;2023-05-06T08:56:47;16.10;99.90
28524;DHT22;15734;50.904;6.922;2023-05-06T08:59:22;16.10;99.90
28524;DHT22;15734;50.904;6.922;2023-05-06T09:01:48;16.20;99.90
28524;DHT22;15734;50.904;6.922;2023-05-06T09:04:15;16.30;99.90
28524;DHT22;15734;50.904;6.922;2023-05-06T09:06:40;16.50;99.90
28524;DHT22;15734;50.904;6.922;2023-05-06T09:09:06;16.50;99.90
28524;DHT22;15734;50.904;6.922;2023-05-06T09:11:31;16.70;99.90
28524;DHT22;15734;50.904;6.922;2023-05-06T09:14:07;16.80;99.90
28524;DHT22;15734;50.904;6.922;2023-05-06T09:16:34;16.90;99.90
28524;DHT22;15734;50.904;6.922;2023-05-06T09:19:00;17.00;99.90
28524;DHT22;15734;50.904;6.922;2023-05-06T09:21:32;17.00;99.90
28524;DHT22;15734;50.904;6.922;2023-05-06T09:23:58;17.20;99.90
28524;DHT22;15734;50.904;6.922;2023-05-06T09:26:26;17.30;99.90
28524;DHT22;15734;50.904;6.922;2023-05-06T09:28:52;17.30;99.90
28524;DHT22;15734;50.904;6.922;2023-05-06T09:31:17;17.40;99.90
28524;DHT22;15734;50.904;6.922;2023-05-06T09:33:43;17.50;99.90
28524;DHT22;15734;50.904;6.922;2023-05-06T09:36:08;17.60;99.90
28524;DHT22;15734;50.904;6.922;2023-05-06T09:38:40;17.80;99.90
28524;DHT22;15734;50.904;6.922;2023-05-06T09:41:06;18.00;99.90
28524;DHT22;15734;50.904;6.922;2023-05-06T09:43:32;18.10;99.90
28524;DHT22;15734;50.904;6.922;2023-05-06T09:45:58;18.20;99.90
28524;DHT22;15734;50.904;6.922;2023-05-06T09:48:29;18.30;99.90
28524;DHT22;15734;50.904;6.922;2023-05-06T09:50:55;18.40;99.90
28524;DHT22;15734;50.904;6.922;2023-05-06T09:53:22;18.50;99.90
28524;DHT22;15734;50.904;6.922;2023-05-06T09:55:49;18.70;99.90
28524;DHT22;15734;50.904;6.922;2023-05-06T09:58:18;19.00;99.90
28524;DHT22;15734;50.904;6.922;2023-05-06T10:00:45;19.20;99.90
28524;DHT22;15734;50.904;6.922;2023-05-06T10:03:12;19.30;99.90
28524;DHT22;15734;50.904;6.922;2023-05-06T10:05:38;19.40;99.90
28524;DHT22;15734;50.904;6.922;2023-05-06T10:08:07;19.40;99.90
28524;DHT22;15734;50.904;6.922;2023-05-06T10:10:33;19.50;99.90
28524;DHT22;15734;50.904;6.922;2023-05-06T10:13:03;19.60;99.90
28524;DHT22;15734;50.904;6.922;2023-05-06T10:15:29;19.70;99.90
28524;DHT22;15734;50.904;6.922;2023-05-06T10:17:57;19.90;99.90
28524;DHT22;15734;50.904;6.922;2023-05-06T10:20:23;20.20;99.90
28524;DHT22;15734;50.904;6.922;2023-05-06T10:23:05;20.40;99.90
28524;DHT22;15734;50.904;6.922;2023-05-06T10:25:43;20.50;99.90
28524;DHT22;15734;50.904;6.922;2023-05-06T10:28:10;20.40;99.90
28524;DHT22;15734;50.904;6.922;2023-05-06T10:30:38;20.60;99.90
28524;DHT22;15734;50.904;6.922;2023-05-06T10:33:08;20.70;99.90
28524;DHT22;15734;50.904;6.922;2023-05-06T10:38:34;21.00;99.90
28524;DHT22;15734;50.904;6.922;2023-05-06T10:41:01;21.40;99.90
28524;DHT22;15734;50.904;6.922;2023-05-06T10:43:29;21.50;99.90
28524;DHT22;15734;50.904;6.922;2023-05-06T10:46:06;21.50;99.90
28524;DHT22;15734;50.904;6.922;2023-05-06T10:48:34;21.60;99.90
28524;DHT22;15734;50.904;6.922;2023-05-06T10:54:07;21.30;99.90
28524;DHT22;15734;50.904;6.922;2023-05-06T10:56:38;21.20;99.90
28524;DHT22;15734;50.904;6.922;2023-05-06T10:59:09;21.10;99.90
28524;DHT22;15734;50.904;6.922;2023-05-06T11:01:39;20.80;99.90
28524;DHT22;15734;50.904;6.922;2023-05-06T11:04:09;20.80;99.90
28524;DHT22;15734;50.904;6.922;2023-05-06T11:06:39;20.90;99.90
28524;DHT22;15734;50.904;6.922;2023-05-06T11:09:18;20.90;99.90
28524;DHT22;15734;50.904;6.922;2023-05-06T11:11:48;20.50;99.90
28524;DHT22;15734;50.904;6.922;2023-05-06T11:14:35;20.50;99.90
28524;DHT22;15734;50.904;6.922;2023-05-06T11:17:06;20.50;99.90
28524;DHT22;15734;50.904;6.922;2023-05-06T11:19:34;20.60;99.90
28524;DHT22;15734;50.904;6.922;2023-05-06T11:22:01;20.70;99.90
28524;DHT22;15734;50.904;6.922;2023-05-06T11:24:41;20.70;99.90
28524;DHT22;15734;50.904;6.922;2023-05-06T11:27:08;21.00;99.90
28524;DHT22;15734;50.904;6.922;2023-05-06T11:29:35;21.40;99.90
28524;DHT22;15734;50.904;6.922;2023-05-06T11:32:04;21.70;99.90
28524;DHT22;15734;50.904;6.922;2023-05-06T11:34:45;22.00;99.90
28524;DHT22;15734;50.904;6.922;2023-05-06T11:37:11;21.80;99.90
28524;DHT22;15734;50.904;6.922;2023-05-06T11:39:36;22.00;99.90
28524;DHT22;15734;50.904;6.922;2023-05-06T11:42:04;22.10;99.90
28524;DHT22;15734;50.904;6.922;2023-05-06T11:44:35;22.10;99.90
28524;DHT22;15734;50.904;6.922;2023-05-06T11:47:06;22.30;99.90
28524;DHT22;15734;50.904;6.922;2023-05-06T11:52:03;22.90;99.90
28524;DHT22;15734;50.904;6.922;2023-05-06T11:54:33;22.90;99.90
28524;DHT22;15734;50.904;6.922;2023-05-06T11:56:58;22.60;99.90
28524;DHT22;15734;50.904;6.922;2023-05-06T11:59:35;22.50;99.90
28524;DHT22;15734;50.904;6.922;2023-05-06T12:02:06;22.30;99.90
28524;DHT22;15734;50.904;6.922;2023-05-06T12:04:43;22.60;99.90
28524;DHT22;15734;50.904;6.922;2023-05-06T12:07:11;22.50;99.90
28524;DHT22;15734;50.904;6.922;2023-05-06T12:09:46;22.80;99.90
28524;DHT22;15734;50.904;6.922;2023-05-06T12:12:15;23.30;99.90
28524;DHT22;15734;50.904;6.922;2023-05-06T12:14:42;23.80;99.90
28524;DHT22;15734;50.904;6.922;2023-05-06T12:17:09;24.00;99.90
28524;DHT22;15734;50.904;6.922;2023-05-06T12:19:35;23.80;99.90
28524;DHT22;15734;50.904;6.922;2023-05-06T12:22:33;23.50;99.90
28524;DHT22;15734;50.904;6.922;2023-05-06T12:25:14;23.80;99.90
28524;DHT22;15734;50.904;6.922;2023-05-06T12:27:40;23.80;99.90
28524;DHT22;15734;50.904;6.922;2023-05-06T12:30:06;22.90;99.90
28524;DHT22;15734;50.904;6.922;2023-05-06T12:32:33;22.90;99.90
28524;DHT22;15734;50.904;6.922;2023-05-06T12:34:59;22.70;99.90
28524;DHT22;15734;50.904;6.922;2023-05-06T12:37:29;22.30;99.90
28524;DHT22;15734;50.904;6.922;2023-05-06T12:39:56;22.20;99.90
28524;DHT22;15734;50.904;6.922;2023-05-06T12:42:22;22.20;99.90
28524;DHT22;15734;50.904;6.922;2023-05-06T12:44:48;22.10;99.90
28524;DHT22;15734;50.904;6.922;2023-05-06T12:47:19;22.30;99.90
28524;DHT22;15734;50.904;6.922;2023-05-06T12:52:12;22.20;99.90
28524;DHT22;15734;50.904;6.922;2023-05-06T12:54:38;21.90;99.90
28524;DHT22;15734;50.904;6.922;2023-05-06T12:57:04;22.10;99.90
28524;DHT22;15734;50.904;6.922;2023-05-06T12:59:30;22.00;99.90
28524;DHT22;15734;50.904;6.922;2023-05-06T13:01:56;22.20;99.90
28524;DHT22;15734;50.904;6.922;2023-05-06T13:04:21;22.10;99.90
28524;DHT22;15734;50.904;6.922;2023-05-06T13:06:48;22.10;99.90
28524;DHT22;15734;50.904;6.922;2023-05-06T13:09:14;21.90;99.90
28524;DHT22;15734;50.904;6.922;2023-05-06T13:11:40;22.00;99.90
28524;DHT22;15734;50.904;6.922;2023-05-06T13:14:05;21.90;99.90
28524;DHT22;15734;50.904;6.922;2023-05-06T13:16:31;21.80;99.90
28524;DHT22;15734;50.904;6.922;2023-05-06T13:18:57;21.60;99.90
28524;DHT22;15734;50.904;6.922;2023-05-06T13:21:22;21.40;99.90
28524;DHT22;15734;50.904;6.922;2023-05-06T13:23:48;21.40;99.90
28524;DHT22;15734;50.904;6.922;2023-05-06T13:26:14;21.10;99.90
28524;DHT22;15734;50.904;6.922;2023-05-06T13:28:39;21.10;99.90
28524;DHT22;15734;50.904;6.922;2023-05-06T13:31:06;20.90;99.90
28524;DHT22;15734;50.904;6.922;2023-05-06T13:33:33;20.70;99.90
28524;DHT22;15734;50.904;6.922;2023-05-06T13:35:58;20.60;99.90
28524;DHT22;15734;50.904;6.922;2023-05-06T13:38:24;20.60;99.90
28524;DHT22;15734;50.904;6.922;2023-05-06T13:40:51;20.70;99.90
28524;DHT22;15734;50.904;6.922;2023-05-06T13:43:17;20.70;99.90
28524;DHT22;15734;50.904;6.922;2023-05-06T13:45:43;20.60;99.90
28524;DHT22;15734;50.904;6.922;2023-05-06T13:48:13;20.60;99.90
28524;DHT22;15734;50.904;6.922;2023-05-06T13:50:43;20.40;99.90
28524;DHT22;15734;50.904;6.922;2023-05-06T13:53:10;20.20;99.90
28524;DHT22;15734;50.904;6.922;2023-05-06T13:55:36;19.80;99.90
28524;DHT22;15734;50.904;6.922;2023-05-06T13:58:02;19.20;99.90
28524;DHT22;15734;50.904;6.922;2023-05-06T14:00:28;18.70;99.90
28524;DHT22;15734;50.904;6.922;2023-05-06T14:02:53;18.10;99.90
28524;DHT22;15734;50.904;6.922;2023-05-06T14:05:19;17.90;99.90
28524;DHT22;15734;50.904;6.922;2023-05-06T14:07:44;17.30;99.90
28524;DHT22;15734;50.904;6.922;2023-05-06T14:10:10;17.20;99.90
28524;DHT22;15734;50.904;6.922;2023-05-06T14:12:36;17.10;99.90
28524;DHT22;15734;50.904;6.922;2023-05-06T14:15:03;17.00;99.90
28524;DHT22;15734;50.904;6.922;2023-05-06T14:17:29;16.90;99.90
28524;DHT22;15734;50.904;6.922;2023-05-06T14:19:55;16.80;99.90
28524;DHT22;15734;50.904;6.922;2023-05-06T14:22:20;16.60;99.90
28524;DHT22;15734;50.904;6.922;2023-05-06T14:24:46;16.40;99.90
28524;DHT22;15734;50.904;6.922;2023-05-06T14:27:11;16.30;99.90
28524;DHT22;15734;50.904;6.922;2023-05-06T14:29:37;16.20;99.90
28524;DHT22;15734;50.904;6.922;2023-05-06T14:32:02;16.10;99.90
28524;DHT22;15734;50.904;6.922;2023-05-06T14:34:29;16.00;99.90
28524;DHT22;15734;50.904;6.922;2023-05-06T14:36:55;15.90;99.90
28524;DHT22;15734;50.904;6.922;2023-05-06T14:39:21;15.90;99.90
28524;DHT22;15734;50.904;6.922;2023-05-06T14:41:47;15.90;99.90
28524;DHT22;15734;50.904;6.922;2023-05-06T14:44:13;15.90;99.90
28524;DHT22;15734;50.904;6.922;2023-05-06T14:46:38;15.90;99.90
28524;DHT22;15734;50.904;6.922;2023-05-06T14:49:04;16.00;99.90
28524;DHT22;15734;50.904;6.922;2023-05-06T14:51:29;16.10;99.90
28524;DHT22;15734;50.904;6.922;2023-05-06T14:53:56;16.20;99.90
28524;DHT22;15734;50.904;6.922;2023-05-06T14:56:22;16.20;99.90
28524;DHT22;15734;50.904;6.922;2023-05-06T14:58:47;16.30;99.90
28524;DHT22;15734;50.904;6.922;2023-05-06T15:01:13;16.30;99.90
28524;DHT22;15734;50.904;6.922;2023-05-06T15:03:38;16.30;99.90
28524;DHT22;15734;50.904;6.922;2023-05-06T15:06:04;16.10;99.90
28524;DHT22;15734;50.904;6.922;2023-05-06T15:08:30;16.20;99.90
28524;DHT22;15734;50.904;6.922;2023-05-06T15:10:55;16.10;99.90
28524;DHT22;15734;50.904;6.922;2023-05-06T15:13:21;16.20;99.90
28524;DHT22;15734;50.904;6.922;2023-05-06T15:15:46;16.10;99.90
28524;DHT22;15734;50.904;6.922;2023-05-06T15:18:12;16.10;99.90
28524;DHT22;15734;50.904;6.922;2023-05-06T15:20:37;16.00;99.90
28524;DHT22;15734;50.904;6.922;2023-05-06T15:23:03;16.10;99.90
28524;DHT22;15734;50.904;6.922;2023-05-06T15:25:29;16.10;99.90
28524;DHT22;15734;50.904;6.922;2023-05-06T15:27:55;16.10;99.90
28524;DHT22;15734;50.904;6.922;2023-05-06T15:30:21;16.10;99.90
28524;DHT22;15734;50.904;6.922;2023-05-06T15:32:46;16.10;99.90
28524;DHT22;15734;50.904;6.922;2023-05-06T15:35:13;16.20;99.90
28524;DHT22;15734;50.904;6.922;2023-05-06T15:37:39;16.20;99.90
28524;DHT22;15734;50.904;6.922;2023-05-06T15:40:08;16.20;99.90
28524;DHT22;15734;50.904;6.922;2023-05-06T15:42:37;16.20;99.90
28524;DHT22;15734;50.904;6.922;2023-05-06T15:45:03;16.30;99.90
28524;DHT22;15734;50.904;6.922;2023-05-06T15:47:29;16.40;99.90
28524;DHT22;15734;50.904;6.922;2023-05-06T15:49:55;16.40;99.90